createdAt,value
2022-09-04T00:00:51.930Z,11.50
2022-09-04T00:03:35.482Z,11.50
2022-09-04T00:06:13.470Z,11.40
2022-09-04T00:08:50.006Z,11.40
2022-09-04T00:11:31.530Z,11.40
2022-09-04T00:14:02.225Z,11.30
2022-09-04T00:16:36.674Z,11.30
2022-09-04T00:19:10.284Z,11.20
2022-09-04T00:21:45.928Z,11.10
2022-09-04T00:24:17.722Z,11.10
2022-09-04T00:26:54.334Z,11.10
2022-09-04T00:29:28.642Z,11.00
2022-09-04T00:32:04.363Z,11.00
2022-09-04T00:34:49.924Z,10.90
2022-09-04T00:37:22.874Z,10.90
2022-09-04T00:39:58.050Z,10.80
2022-09-04T00:43:06.708Z,10.80
2022-09-04T00:45:44.721Z,10.80
2022-09-04T00:48:37.397Z,10.80
2022-09-04T00:51:21.253Z,10.70
2022-09-04T00:54:08.250Z,10.70
2022-09-04T00:57:13.879Z,10.60
2022-09-04T00:59:57.317Z,10.60
2022-09-04T01:02:32.947Z,10.60
2022-09-04T01:05:09.909Z,10.60
2022-09-04T01:07:56.100Z,10.60
2022-09-04T01:10:35.912Z,10.50
2022-09-04T01:13:11.360Z,10.50
2022-09-04T01:15:45.929Z,10.40
2022-09-04T01:18:19.663Z,10.50
2022-09-04T01:21:06.505Z,10.40
2022-09-04T01:24:07.201Z,10.40
2022-09-04T01:26:46.641Z,10.30
2022-09-04T01:29:24.452Z,10.40
2022-09-04T01:32:16.067Z,10.30
2022-09-04T01:34:51.991Z,10.20
2022-09-04T01:37:31.449Z,10.20
2022-09-04T01:40:21.375Z,10.20
2022-09-04T01:42:57.078Z,10.20
2022-09-04T01:45:43.063Z,10.20
2022-09-04T01:48:13.815Z,10.20
2022-09-04T01:50:45.055Z,10.20
2022-09-04T01:53:19.735Z,10.10
2022-09-04T01:55:56.476Z,10.00
2022-09-04T01:58:35.478Z,10.00
2022-09-04T02:01:12.633Z,10.00
2022-09-04T02:03:52.216Z,10.00
2022-09-04T02:06:27.799Z,10.00
2022-09-04T02:09:12.740Z,9.90
2022-09-04T02:11:57.032Z,9.90
2022-09-04T02:14:37.093Z,9.90
2022-09-04T02:17:12.247Z,9.90
2022-09-04T02:19:57.840Z,9.90
2022-09-04T02:22:33.465Z,9.80
2022-09-04T02:25:08.805Z,9.80
2022-09-04T02:27:46.866Z,9.70
2022-09-04T02:30:19.838Z,9.80
2022-09-04T02:32:57.426Z,9.80
2022-09-04T02:35:34.960Z,9.80
2022-09-04T02:38:14.786Z,9.70
2022-09-04T02:40:52.738Z,9.70
2022-09-04T02:43:39.810Z,9.70
2022-09-04T02:46:17.181Z,9.60
2022-09-04T02:48:57.836Z,9.60
2022-09-04T02:51:40.858Z,9.50
2022-09-04T02:54:15.814Z,9.60
2022-09-04T02:56:53.798Z,9.50
2022-09-04T02:59:33.018Z,9.50
2022-09-04T03:02:05.317Z,9.50
2022-09-04T03:04:40.610Z,9.50
2022-09-04T03:07:14.753Z,9.50
2022-09-04T03:09:48.249Z,9.50
2022-09-04T03:12:33.874Z,9.50
2022-09-04T03:15:09.120Z,9.50
2022-09-04T03:17:48.529Z,9.50
2022-09-04T03:20:22.500Z,9.50
2022-09-04T03:22:56.718Z,9.50
2022-09-04T03:26:11.815Z,9.50
2022-09-04T03:28:49.738Z,9.50
2022-09-04T03:31:32.025Z,9.50
2022-09-04T03:34:13.714Z,9.40
2022-09-04T03:36:55.794Z,9.40
2022-09-04T03:39:30.869Z,9.40
2022-09-04T03:42:10.571Z,9.40
2022-09-04T03:44:52.537Z,9.30
2022-09-04T03:47:28.669Z,9.30
2022-09-04T03:50:11.664Z,9.30
2022-09-04T03:52:53.048Z,9.30
2022-09-04T03:55:44.997Z,9.30
2022-09-04T03:58:22.535Z,9.20
2022-09-04T04:00:59.549Z,9.20
2022-09-04T04:03:50.266Z,9.20
2022-09-04T04:06:29.850Z,9.20
2022-09-04T04:09:13.614Z,9.30
2022-09-04T04:12:06.425Z,9.20
2022-09-04T04:14:59.326Z,9.20
2022-09-04T04:17:57.651Z,9.20
2022-09-04T04:20:40.550Z,9.10
2022-09-04T04:23:30.428Z,9.10
2022-09-04T04:26:10.600Z,9.10
2022-09-04T04:29:11.141Z,9.10
2022-09-04T04:32:11.278Z,9.10
2022-09-04T04:34:48.548Z,9.10
2022-09-04T04:37:23.872Z,9.10
2022-09-04T04:40:02.892Z,9.10
2022-09-04T04:42:41.978Z,9.10
2022-09-04T04:45:38.300Z,9.10
2022-09-04T04:48:40.426Z,9.20
2022-09-04T04:51:20.847Z,9.30
2022-09-04T04:53:57.954Z,9.30
2022-09-04T04:56:34.712Z,9.40
2022-09-04T04:59:20.403Z,9.50
2022-09-04T05:01:56.204Z,9.60
2022-09-04T05:04:33.062Z,9.70
2022-09-04T05:07:07.440Z,9.90
2022-09-04T05:09:41.232Z,10.00
2022-09-04T05:12:21.687Z,10.20
2022-09-04T05:14:55.500Z,10.30
2022-09-04T05:17:32.643Z,10.50
2022-09-04T05:20:24.127Z,10.60
2022-09-04T05:23:03.353Z,10.80
2022-09-04T05:25:39.311Z,10.90
2022-09-04T05:28:22.525Z,11.00
2022-09-04T05:30:59.784Z,11.20
2022-09-04T05:33:36.869Z,11.30
2022-09-04T05:36:13.578Z,11.40
2022-09-04T05:38:51.207Z,11.60
2022-09-04T05:41:36.240Z,11.70
2022-09-04T05:44:30.850Z,11.90
2022-09-04T05:47:09.556Z,12.10
2022-09-04T05:50:00.574Z,12.30
2022-09-04T05:52:55.928Z,12.50
2022-09-04T05:55:49.534Z,12.70
2022-09-04T05:58:41.892Z,12.90
2022-09-04T06:01:25.164Z,13.10
2022-09-04T06:04:15.829Z,13.20
2022-09-04T06:06:54.930Z,13.50
2022-09-04T06:09:32.490Z,13.70
2022-09-04T06:12:19.606Z,13.80
2022-09-04T06:15:17.095Z,13.80
2022-09-04T06:18:02.475Z,14.10
2022-09-04T06:20:42.719Z,14.40
2022-09-04T06:23:49.828Z,14.80
2022-09-04T06:26:28.626Z,15.10
2022-09-04T06:29:08.327Z,15.30
2022-09-04T06:31:59.725Z,15.60
2022-09-04T06:34:40.776Z,16.00
2022-09-04T06:37:18.712Z,16.30
2022-09-04T06:40:02.614Z,16.40
2022-09-04T06:42:48.235Z,16.50
2022-09-04T06:45:23.625Z,16.70
2022-09-04T06:48:04.721Z,16.90
2022-09-04T06:50:45.624Z,17.00
2022-09-04T06:53:22.451Z,17.00
2022-09-04T06:56:01.609Z,17.50
2022-09-04T06:59:11.879Z,18.00
2022-09-04T07:01:52.347Z,18.50
2022-09-04T07:04:34.103Z,18.40
2022-09-04T07:07:13.941Z,18.50
2022-09-04T07:09:47.692Z,18.90
2022-09-04T07:12:33.966Z,19.30
2022-09-04T07:15:30.441Z,19.50
2022-09-04T07:18:07.568Z,20.00
2022-09-04T07:20:42.062Z,20.40
2022-09-04T07:23:23.761Z,20.20
2022-09-04T07:26:03.813Z,20.50
2022-09-04T07:28:44.656Z,21.00
2022-09-04T07:31:20.421Z,21.40
2022-09-04T07:33:55.877Z,21.30
2022-09-04T07:36:33.316Z,21.70
2022-09-04T07:39:11.912Z,22.00
2022-09-04T07:41:50.241Z,22.20
2022-09-04T07:44:24.404Z,22.20
2022-09-04T07:47:00.214Z,22.20
2022-09-04T07:49:34.796Z,22.60
2022-09-04T07:52:13.210Z,23.30
2022-09-04T07:55:06.211Z,23.60
2022-09-04T07:58:09.767Z,23.50
2022-09-04T08:00:50.585Z,23.50
2022-09-04T08:03:33.707Z,23.80
2022-09-04T08:06:14.109Z,23.70
2022-09-04T08:08:59.563Z,24.20
2022-09-04T08:11:50.363Z,24.80
2022-09-04T08:14:30.122Z,25.10
2022-09-04T08:17:03.495Z,25.50
2022-09-04T08:19:45.602Z,25.40
2022-09-04T08:22:19.966Z,25.80
2022-09-04T08:25:12.998Z,26.40
2022-09-04T08:27:59.008Z,26.50
2022-09-04T08:30:35.727Z,26.30
2022-09-04T08:33:29.192Z,25.90
2022-09-04T08:36:02.815Z,25.10
2022-09-04T08:38:50.171Z,24.70
2022-09-04T08:41:54.641Z,24.60
2022-09-04T08:44:59.356Z,25.20
2022-09-04T08:47:54.851Z,26.20
2022-09-04T08:51:00.199Z,25.10
2022-09-04T08:54:03.439Z,25.60
2022-09-04T08:56:38.646Z,26.90
2022-09-04T08:59:42.501Z,27.60
2022-09-04T09:02:51.134Z,27.80
2022-09-04T09:06:13.348Z,27.90
2022-09-04T09:09:17.976Z,26.60
2022-09-04T09:12:24.724Z,26.80
2022-09-04T09:15:30.095Z,27.00
2022-09-04T09:18:23.411Z,27.50
2022-09-04T09:21:02.270Z,27.60
2022-09-04T09:23:41.572Z,27.50
2022-09-04T09:26:28.180Z,28.30
2022-09-04T09:29:47.339Z,28.50
2022-09-04T09:32:52.913Z,28.90
2022-09-04T09:38:52.135Z,29.00
2022-09-04T09:41:48.135Z,29.10
2022-09-04T09:45:00.273Z,29.80
2022-09-04T09:47:52.965Z,30.30
2022-09-04T09:50:59.543Z,30.50
2022-09-04T09:54:05.741Z,29.30
2022-09-04T09:56:53.720Z,30.20
2022-09-04T10:00:07.849Z,30.50
2022-09-04T10:03:14.028Z,30.30
2022-09-04T10:06:23.539Z,31.00
2022-09-04T10:09:24.049Z,31.00
2022-09-04T10:12:30.889Z,31.00
2022-09-04T10:15:23.538Z,30.10
2022-09-04T10:18:39.579Z,30.10
2022-09-04T10:21:46.348Z,31.10
2022-09-04T10:24:57.008Z,30.00
2022-09-04T10:28:00.995Z,30.90
2022-09-04T10:30:33.096Z,30.80
2022-09-04T10:33:30.264Z,30.60
2022-09-04T10:36:11.577Z,31.50
2022-09-04T10:39:06.125Z,31.70
2022-09-04T10:41:54.333Z,31.10
2022-09-04T10:44:56.050Z,31.40
2022-09-04T10:47:47.242Z,30.40
2022-09-04T10:50:28.539Z,29.80
2022-09-04T10:53:41.903Z,29.60
2022-09-04T10:56:17.464Z,29.70
2022-09-04T10:59:21.246Z,29.20
2022-09-04T11:02:23.293Z,30.00
2022-09-04T11:05:19.380Z,29.30
2022-09-04T11:08:16.291Z,30.00
2022-09-04T11:10:58.714Z,30.20
2022-09-04T11:13:56.385Z,31.00
2022-09-04T11:17:09.521Z,31.00
2022-09-04T11:20:09.340Z,31.20
2022-09-04T11:23:20.355Z,31.40
2022-09-04T11:26:22.743Z,31.00
2022-09-04T11:29:24.329Z,30.80
2022-09-04T11:32:27.182Z,30.90
2022-09-04T11:35:22.254Z,30.10
2022-09-04T11:38:00.829Z,30.70
2022-09-04T11:40:59.339Z,31.30
2022-09-04T11:44:07.974Z,32.10
2022-09-04T11:47:12.167Z,32.20
2022-09-04T11:49:59.757Z,32.00
2022-09-04T11:52:44.254Z,31.20
2022-09-04T11:55:40.854Z,31.60
2022-09-04T11:58:41.805Z,31.60
2022-09-04T12:01:33.578Z,32.00
2022-09-04T12:04:25.811Z,31.40
2022-09-04T12:07:13.505Z,31.90
2022-09-04T12:10:05.308Z,31.70
2022-09-04T12:13:00.460Z,32.10
2022-09-04T12:16:05.533Z,32.70
2022-09-04T12:23:01.605Z,32.80
2022-09-04T12:26:02.839Z,33.50
2022-09-04T12:29:02.365Z,32.80
2022-09-04T12:31:51.819Z,33.10
2022-09-04T12:34:54.483Z,33.30
2022-09-04T12:37:43.505Z,33.70
2022-09-04T12:40:35.223Z,34.20
2022-09-04T12:43:24.185Z,34.50
2022-09-04T12:46:06.241Z,34.30
2022-09-04T12:48:42.412Z,34.00
2022-09-04T12:51:14.372Z,33.50
2022-09-04T12:54:12.465Z,33.70
2022-09-04T12:56:49.479Z,33.80
2022-09-04T12:59:36.922Z,33.20
2022-09-04T13:02:13.827Z,33.00
2022-09-04T13:04:57.479Z,33.70
2022-09-04T13:07:42.798Z,33.60
2022-09-04T13:10:23.646Z,33.50
2022-09-04T13:13:06.914Z,33.10
2022-09-04T13:15:46.041Z,33.40
2022-09-04T13:18:26.939Z,32.50
2022-09-04T13:21:02.267Z,32.90
2022-09-04T13:23:54.658Z,33.10
2022-09-04T13:26:38.995Z,33.10
2022-09-04T13:29:17.192Z,31.90
2022-09-04T13:32:00.317Z,32.60
2022-09-04T13:34:41.157Z,33.10
2022-09-04T13:37:21.269Z,33.10
2022-09-04T13:40:11.916Z,33.10
2022-09-04T13:42:57.354Z,32.70
2022-09-04T13:45:29.453Z,32.00
2022-09-04T13:48:02.141Z,32.10
2022-09-04T13:50:35.766Z,32.00
2022-09-04T13:53:14.215Z,32.30
2022-09-04T13:55:49.865Z,32.50
2022-09-04T13:58:20.738Z,32.60
2022-09-04T14:00:53.325Z,32.60
2022-09-04T14:03:34.441Z,32.10
2022-09-04T14:06:05.794Z,31.60
2022-09-04T14:08:34.705Z,31.90
2022-09-04T14:11:30.546Z,31.20
2022-09-04T14:14:21.115Z,31.00
2022-09-04T14:16:54.869Z,30.90
2022-09-04T14:19:41.143Z,31.20
2022-09-04T14:25:30.924Z,31.80
2022-09-04T14:28:03.486Z,32.10
2022-09-04T14:30:41.965Z,31.90
2022-09-04T14:32:06.745Z,31.40
2022-09-04T14:33:25.077Z,31.80
2022-09-04T14:36:08.163Z,30.90
2022-09-04T14:39:06.536Z,30.60
2022-09-04T14:41:47.722Z,30.80
2022-09-04T14:44:39.027Z,30.90
2022-09-04T14:47:13.748Z,30.50
2022-09-04T14:49:47.450Z,30.90
2022-09-04T14:52:19.759Z,30.30
2022-09-04T14:54:52.576Z,30.50
2022-09-04T14:57:28.292Z,30.10
2022-09-04T15:00:04.532Z,30.20
2022-09-04T15:02:38.201Z,30.20
2022-09-04T15:05:17.786Z,29.80
2022-09-04T15:07:59.232Z,29.90
2022-09-04T15:10:35.258Z,29.60
2022-09-04T15:13:42.149Z,29.20
2022-09-04T15:16:19.481Z,29.30
2022-09-04T15:18:56.130Z,29.30
2022-09-04T15:21:34.718Z,28.80
2022-09-04T15:24:13.003Z,29.10
2022-09-04T15:26:46.766Z,28.90
2022-09-04T15:29:22.836Z,28.60
2022-09-04T15:32:00.667Z,28.50
2022-09-04T15:34:30.649Z,28.50
2022-09-04T15:37:14.477Z,28.10
2022-09-04T15:39:53.949Z,27.80
2022-09-04T15:42:43.817Z,27.60
2022-09-04T15:45:20.887Z,27.60
2022-09-04T15:48:04.415Z,27.50
2022-09-04T15:50:36.073Z,27.60
2022-09-04T15:53:26.334Z,27.20
2022-09-04T15:56:09.569Z,26.50
2022-09-04T15:58:47.666Z,26.70
2022-09-04T16:01:18.198Z,26.70
2022-09-04T16:03:55.790Z,26.70
2022-09-04T16:06:30.040Z,26.60
2022-09-04T16:09:04.533Z,26.30
2022-09-04T16:11:37.754Z,26.20
2022-09-04T16:14:09.269Z,25.90
2022-09-04T16:16:45.458Z,25.50
2022-09-04T16:19:23.483Z,25.10
2022-09-04T16:22:01.723Z,24.40
2022-09-04T16:24:36.391Z,24.40
2022-09-04T16:27:08.429Z,24.20
2022-09-04T16:29:39.277Z,23.90
2022-09-04T16:32:12.212Z,23.90
2022-09-04T16:34:47.902Z,23.90
2022-09-04T16:37:20.134Z,23.80
2022-09-04T16:40:00.121Z,23.60
2022-09-04T16:42:37.465Z,23.40
2022-09-04T16:45:13.524Z,23.30
2022-09-04T16:47:47.296Z,23.10
2022-09-04T16:50:24.850Z,23.00
2022-09-04T16:53:12.634Z,23.00
2022-09-04T16:55:50.773Z,23.00
2022-09-04T16:58:35.197Z,22.80
2022-09-04T17:01:15.504Z,22.70
2022-09-04T17:04:13.522Z,22.60
2022-09-04T17:06:54.223Z,22.40
2022-09-04T17:09:28.004Z,22.20
2022-09-04T17:12:06.997Z,22.00
2022-09-04T17:14:38.919Z,21.70
2022-09-04T17:17:29.932Z,21.50
2022-09-04T17:20:06.236Z,21.40
2022-09-04T17:28:57.652Z,21.20
2022-09-04T17:29:11.313Z,20.80
2022-09-04T17:29:13.156Z,21.10
2022-09-04T17:31:34.917Z,20.70
2022-09-04T17:40:34.821Z,20.50
2022-09-04T17:40:40.414Z,20.40
2022-09-04T17:40:51.618Z,20.30
2022-09-04T17:43:21.786Z,20.10
2022-09-04T17:46:02.828Z,19.90
2022-09-04T17:48:33.244Z,19.80
2022-09-04T17:51:03.966Z,19.70
2022-09-04T17:53:35.274Z,19.60
2022-09-04T17:56:09.039Z,19.40
2022-09-04T17:58:43.551Z,19.30
2022-09-04T18:01:21.652Z,19.20
2022-09-04T18:04:20.761Z,19.10
2022-09-04T18:07:57.759Z,19.00
2022-09-04T18:10:18.591Z,18.80
2022-09-04T18:12:53.138Z,18.60
2022-09-04T18:15:33.412Z,18.50
2022-09-04T18:18:12.559Z,18.40
2022-09-04T18:20:46.520Z,18.30
2022-09-04T18:23:51.992Z,18.20
2022-09-04T18:26:27.940Z,18.00
2022-09-04T18:31:48.264Z,17.90
2022-09-04T18:37:07.005Z,17.80
2022-09-04T18:37:16.431Z,17.70
2022-09-04T18:38:44.095Z,17.50
2022-09-04T18:46:24.732Z,17.50
2022-09-04T18:50:31.929Z,17.30
2022-09-04T18:50:39.646Z,17.10
2022-09-04T18:50:45.736Z,17.20
2022-09-04T18:53:05.937Z,17.00
2022-09-04T18:55:38.593Z,16.90
2022-09-04T18:58:36.820Z,16.80
2022-09-04T19:01:11.249Z,16.70
2022-09-04T19:03:45.618Z,16.70
2022-09-04T19:06:16.250Z,16.60
2022-09-04T19:08:49.895Z,16.50
2022-09-04T19:11:24.069Z,16.50
2022-09-04T19:13:57.214Z,16.40
2022-09-04T19:16:43.041Z,16.30
2022-09-04T19:19:17.669Z,16.20
2022-09-04T19:21:58.206Z,16.20
2022-09-04T19:24:35.496Z,16.10
2022-09-04T19:27:27.531Z,16.10
2022-09-04T19:30:18.923Z,16.00
2022-09-04T19:33:09.379Z,15.90
2022-09-04T19:35:45.655Z,15.90
2022-09-04T19:42:52.275Z,15.80
2022-09-04T19:46:08.647Z,15.80
2022-09-04T19:46:17.789Z,15.80
2022-09-04T19:47:28.649Z,15.70
2022-09-04T19:53:23.975Z,15.60
2022-09-04T19:53:30.149Z,15.60
2022-09-04T19:55:47.374Z,15.50
2022-09-04T19:58:21.660Z,15.40
2022-09-04T20:00:56.165Z,15.40
2022-09-04T20:03:30.293Z,15.40
2022-09-04T20:06:20.689Z,15.30
2022-09-04T20:08:53.114Z,15.30
2022-09-04T20:11:35.684Z,15.20
2022-09-04T20:14:14.976Z,15.10
2022-09-04T20:16:56.908Z,15.10
2022-09-04T20:19:31.419Z,15.00
2022-09-04T20:22:04.627Z,14.90
2022-09-04T20:24:39.625Z,14.90
2022-09-04T20:27:15.837Z,14.80
2022-09-04T20:29:54.544Z,14.80
2022-09-04T20:32:26.672Z,14.70
2022-09-04T20:35:13.712Z,14.60
2022-09-04T20:37:49.062Z,14.60
2022-09-04T20:40:31.184Z,14.50
2022-09-04T20:43:16.401Z,14.50
2022-09-04T20:51:48.057Z,14.50
2022-09-04T20:52:50.063Z,14.40
2022-09-04T20:52:50.227Z,14.40
2022-09-04T20:54:48.882Z,14.30
2022-09-04T20:59:41.191Z,14.30
2022-09-04T21:03:21.750Z,14.30
2022-09-04T21:03:28.129Z,14.30
2022-09-04T21:06:13.228Z,14.20
2022-09-04T21:08:50.038Z,14.20
2022-09-04T21:11:39.655Z,14.20
2022-09-04T21:14:15.408Z,14.20
2022-09-04T21:17:06.826Z,14.20
2022-09-04T21:20:25.658Z,14.10
2022-09-04T21:23:09.510Z,14.10
2022-09-04T21:25:51.413Z,14.10
2022-09-04T21:28:39.415Z,14.10
2022-09-04T21:31:20.978Z,14.10
2022-09-04T21:34:04.912Z,14.00
2022-09-04T21:36:41.002Z,14.00
2022-09-04T21:39:48.623Z,13.90
2022-09-04T21:42:44.808Z,13.90
2022-09-04T21:45:33.592Z,13.80
2022-09-04T21:48:25.836Z,13.80
2022-09-04T21:51:23.297Z,13.80
2022-09-04T21:54:37.503Z,13.70
2022-09-04T22:02:31.819Z,13.70
2022-09-04T22:02:44.244Z,13.60
2022-09-04T22:03:27.036Z,13.60
2022-09-04T22:06:09.298Z,13.60
2022-09-04T22:13:30.542Z,13.60
2022-09-04T22:13:40.213Z,13.50
2022-09-04T22:14:43.016Z,13.50
2022-09-04T22:17:42.109Z,13.50
2022-09-04T22:20:47.148Z,13.50
2022-09-04T22:24:02.654Z,13.40
2022-09-04T22:26:52.566Z,13.50
2022-09-04T22:29:46.166Z,13.60
2022-09-04T22:32:46.842Z,13.60
2022-09-04T22:35:50.769Z,13.60
2022-09-04T22:38:37.269Z,13.60
2022-09-04T22:41:30.386Z,13.60
2022-09-04T22:44:10.419Z,13.60
2022-09-04T22:47:20.182Z,13.60
2022-09-04T22:50:22.151Z,13.70
2022-09-04T22:53:41.538Z,13.70
2022-09-04T22:56:23.716Z,13.80
2022-09-04T22:59:25.906Z,13.80
2022-09-04T23:02:30.691Z,13.90
2022-09-04T23:05:37.505Z,13.90
2022-09-04T23:13:42.023Z,14.00
2022-09-04T23:14:01.502Z,14.00
2022-09-04T23:14:44.552Z,14.00
2022-09-04T23:17:29.718Z,14.10
2022-09-04T23:26:37.380Z,14.10
2022-09-04T23:26:53.813Z,14.10
2022-09-04T23:27:00.143Z,14.10
2022-09-04T23:30:04.101Z,14.00
2022-09-04T23:32:56.247Z,14.00
2022-09-04T23:35:37.467Z,13.90
2022-09-04T23:38:35.745Z,13.80
2022-09-04T23:41:14.590Z,13.70
2022-09-04T23:44:25.972Z,13.60
2022-09-04T23:47:47.858Z,13.60
2022-09-04T23:50:35.837Z,13.50
2022-09-04T23:53:13.100Z,13.50
2022-09-04T23:55:49.891Z,13.50
2022-09-04T23:58:51.945Z,13.50
